createdAt,value
2023-06-11T00:01:43.889Z,20.45
2023-06-11T00:03:53.487Z,20.42
2023-06-11T00:05:55.138Z,20.39
2023-06-11T00:08:01.423Z,20.37
2023-06-11T00:10:04.497Z,20.35
2023-06-11T00:12:06.662Z,20.32
2023-06-11T00:14:09.767Z,20.30
2023-06-11T00:16:14.100Z,20.29
2023-06-11T00:18:18.005Z,20.27
2023-06-11T00:20:19.593Z,20.25
2023-06-11T00:22:21.082Z,20.24
2023-06-11T00:24:22.709Z,20.21
2023-06-11T00:26:24.203Z,20.20
2023-06-11T00:28:25.771Z,20.16
2023-06-11T00:30:27.276Z,20.15
2023-06-11T00:32:28.879Z,20.11
2023-06-11T00:34:30.429Z,20.05
2023-06-11T00:36:33.682Z,20.04
2023-06-11T00:38:35.436Z,20.02
2023-06-11T00:40:36.997Z,20.01
2023-06-11T00:42:39.245Z,19.98
2023-06-11T00:44:41.726Z,19.96
2023-06-11T00:46:43.736Z,19.93
2023-06-11T00:48:45.628Z,19.92
2023-06-11T00:50:52.003Z,19.92
2023-06-11T00:52:53.565Z,19.93
2023-06-11T00:54:58.654Z,19.93
2023-06-11T00:57:01.162Z,19.91
2023-06-11T00:59:02.720Z,19.92
2023-06-11T01:01:06.717Z,19.91
2023-06-11T01:03:12.387Z,19.91
2023-06-11T01:05:18.879Z,19.88
2023-06-11T01:07:23.717Z,19.90
2023-06-11T01:09:26.321Z,19.92
2023-06-11T01:11:28.576Z,19.93
2023-06-11T01:13:30.168Z,19.95
2023-06-11T01:15:31.678Z,19.96
2023-06-11T01:17:45.894Z,19.97
2023-06-11T01:19:59.679Z,19.98
2023-06-11T01:22:55.298Z,19.99
2023-06-11T01:25:12.400Z,20.00
2023-06-11T01:27:28.960Z,20.01
2023-06-11T01:29:30.803Z,20.01
2023-06-11T01:31:35.684Z,20.01
2023-06-11T01:33:37.406Z,20.01
2023-06-11T01:35:40.281Z,20.00
2023-06-11T01:37:46.555Z,20.00
2023-06-11T01:39:48.570Z,19.99
2023-06-11T01:41:50.256Z,19.95
2023-06-11T01:43:51.795Z,19.94
2023-06-11T01:45:53.295Z,19.92
2023-06-11T01:47:55.172Z,19.90
2023-06-11T01:49:56.707Z,19.87
2023-06-11T01:51:58.230Z,19.84
2023-06-11T01:54:00.471Z,19.82
2023-06-11T01:56:02.064Z,19.79
2023-06-11T01:58:03.558Z,19.79
2023-06-11T02:00:07.936Z,19.72
2023-06-11T02:02:09.571Z,19.68
2023-06-11T02:04:11.603Z,19.65
2023-06-11T02:06:13.168Z,19.62
2023-06-11T02:08:14.671Z,19.57
2023-06-11T02:10:16.225Z,19.55
2023-06-11T02:12:17.706Z,19.52
2023-06-11T02:14:19.258Z,19.49
2023-06-11T02:16:20.793Z,19.46
2023-06-11T02:18:22.275Z,19.44
2023-06-11T02:20:23.799Z,19.41
2023-06-11T02:22:25.295Z,19.35
2023-06-11T02:24:27.355Z,19.32
2023-06-11T02:26:28.858Z,19.27
2023-06-11T02:28:30.351Z,19.25
2023-06-11T02:30:31.838Z,19.22
2023-06-11T02:32:33.403Z,19.19
2023-06-11T02:34:34.973Z,19.14
2023-06-11T02:36:37.556Z,19.11
2023-06-11T02:38:39.166Z,19.05
2023-06-11T02:40:40.650Z,19.02
2023-06-11T02:42:42.219Z,19.00
2023-06-11T02:44:43.744Z,18.96
2023-06-11T02:46:45.292Z,18.95
2023-06-11T02:48:46.826Z,18.92
2023-06-11T02:50:48.303Z,18.88
2023-06-11T02:52:49.822Z,18.84
2023-06-11T02:54:51.387Z,18.82
2023-06-11T02:56:52.935Z,18.78
2023-06-11T02:58:54.498Z,18.74
2023-06-11T03:00:55.995Z,18.72
2023-06-11T03:02:57.520Z,18.69
2023-06-11T03:04:59.111Z,18.63
2023-06-11T03:07:00.674Z,18.61
2023-06-11T03:09:02.162Z,18.56
2023-06-11T03:11:03.658Z,18.53
2023-06-11T03:13:05.361Z,18.49
2023-06-11T03:15:07.614Z,18.49
2023-06-11T03:17:09.192Z,18.42
2023-06-11T03:19:10.923Z,18.40
2023-06-11T03:21:12.659Z,18.38
2023-06-11T03:23:15.642Z,18.37
2023-06-11T03:25:17.380Z,18.32
2023-06-11T03:27:18.865Z,18.30
2023-06-11T03:29:20.375Z,18.26
2023-06-11T03:31:22.124Z,18.26
2023-06-11T03:33:23.648Z,18.24
2023-06-11T03:35:25.295Z,18.21
2023-06-11T03:37:26.819Z,18.20
2023-06-11T03:39:28.351Z,18.17
2023-06-11T03:41:29.883Z,18.17
2023-06-11T03:43:31.393Z,18.16
2023-06-11T03:45:32.880Z,18.14
2023-06-11T03:47:34.433Z,18.12
2023-06-11T03:49:36.091Z,18.08
2023-06-11T03:51:38.063Z,18.07
2023-06-11T03:53:39.601Z,18.07
2023-06-11T03:55:41.147Z,18.05
2023-06-11T03:57:43.187Z,18.05
2023-06-11T03:59:44.695Z,18.02
2023-06-11T04:01:46.267Z,18.01
2023-06-11T04:03:47.890Z,18.04
2023-06-11T04:05:49.553Z,18.05
2023-06-11T04:07:51.078Z,18.06
2023-06-11T04:09:52.570Z,18.11
2023-06-11T04:11:54.068Z,18.16
2023-06-11T04:13:55.623Z,18.24
2023-06-11T04:15:57.145Z,18.33
2023-06-11T04:17:58.932Z,18.41
2023-06-11T04:20:00.597Z,18.47
2023-06-11T04:22:02.280Z,18.54
2023-06-11T04:24:07.441Z,18.61
2023-06-11T04:26:11.344Z,18.68
2023-06-11T04:28:17.267Z,18.73
2023-06-11T04:30:19.246Z,18.79
2023-06-11T04:32:22.343Z,18.83
2023-06-11T04:34:30.269Z,18.88
2023-06-11T04:36:31.795Z,18.94
2023-06-11T04:38:33.302Z,19.00
2023-06-11T04:40:35.135Z,19.07
2023-06-11T04:42:41.776Z,19.10
2023-06-11T04:44:43.304Z,19.13
2023-06-11T04:46:44.848Z,19.19
2023-06-11T04:48:49.594Z,19.23
2023-06-11T04:50:52.587Z,19.26
2023-06-11T04:52:54.339Z,19.29
2023-06-11T04:54:56.521Z,19.34
2023-06-11T04:56:58.019Z,19.38
2023-06-11T04:58:59.633Z,19.44
2023-06-11T05:01:01.276Z,19.46
2023-06-11T05:03:03.281Z,19.50
2023-06-11T05:05:08.358Z,19.55
2023-06-11T05:07:10.006Z,19.62
2023-06-11T05:09:15.071Z,19.64
2023-06-11T05:11:16.665Z,19.69
2023-06-11T05:13:23.422Z,19.74
2023-06-11T05:15:24.930Z,19.73
2023-06-11T05:17:26.432Z,19.77
2023-06-11T05:19:27.946Z,19.81
2023-06-11T05:21:29.643Z,19.83
2023-06-11T05:23:32.801Z,19.89
2023-06-11T05:25:34.371Z,19.92
2023-06-11T05:27:35.875Z,19.97
2023-06-11T05:29:39.092Z,20.01
2023-06-11T05:31:40.902Z,20.05
2023-06-11T05:33:42.583Z,20.08
2023-06-11T05:35:44.656Z,20.06
2023-06-11T05:37:46.348Z,20.10
2023-06-11T05:39:47.885Z,20.15
2023-06-11T05:41:49.411Z,20.22
2023-06-11T05:43:51.545Z,20.21
2023-06-11T05:45:53.563Z,20.20
2023-06-11T05:47:55.138Z,20.22
2023-06-11T05:49:56.786Z,20.23
2023-06-11T05:51:58.288Z,20.23
2023-06-11T05:54:02.592Z,20.24
2023-06-11T05:56:07.092Z,20.24
2023-06-11T05:58:08.653Z,20.20
2023-06-11T06:00:17.009Z,20.22
2023-06-11T06:02:19.206Z,20.24
2023-06-11T06:04:21.198Z,20.27
2023-06-11T06:06:22.904Z,20.31
2023-06-11T06:08:24.467Z,20.33
2023-06-11T06:10:26.094Z,20.36
2023-06-11T06:12:27.581Z,20.45
2023-06-11T06:14:29.081Z,20.46
2023-06-11T06:16:32.550Z,20.52
2023-06-11T06:18:35.648Z,20.58
2023-06-11T06:20:37.291Z,20.55
2023-06-11T06:22:39.317Z,20.57
2023-06-11T06:24:40.797Z,20.61
2023-06-11T06:26:42.479Z,20.68
2023-06-11T06:28:43.972Z,20.69
2023-06-11T06:30:45.480Z,20.73
2023-06-11T06:32:47.078Z,20.83
2023-06-11T06:34:48.568Z,20.89
2023-06-11T06:36:50.256Z,20.97
2023-06-11T06:38:51.759Z,21.04
2023-06-11T06:40:53.379Z,21.12
2023-06-11T06:42:54.958Z,21.26
2023-06-11T06:44:56.478Z,21.34
2023-06-11T06:46:58.012Z,21.40
2023-06-11T06:48:59.819Z,21.47
2023-06-11T06:51:01.650Z,21.53
2023-06-11T06:53:03.152Z,21.59
2023-06-11T06:55:05.728Z,21.64
2023-06-11T06:57:11.599Z,21.70
2023-06-11T06:59:13.218Z,21.74
2023-06-11T07:01:14.810Z,21.79
2023-06-11T07:03:16.486Z,21.87
2023-06-11T07:05:18.623Z,21.94
2023-06-11T07:07:20.341Z,21.96
2023-06-11T07:09:22.156Z,21.97
2023-06-11T07:11:23.818Z,22.07
2023-06-11T07:13:25.799Z,22.12
2023-06-11T07:15:27.467Z,22.18
2023-06-11T07:17:29.420Z,22.20
2023-06-11T07:19:30.988Z,22.24
2023-06-11T07:21:33.584Z,22.22
2023-06-11T07:23:35.172Z,22.26
2023-06-11T07:25:38.979Z,22.31
2023-06-11T07:27:41.593Z,22.30
2023-06-11T07:29:43.240Z,22.27
2023-06-11T07:31:44.844Z,22.38
2023-06-11T08:02:30.624Z,22.74
2023-06-11T08:04:33.644Z,22.88
2023-06-11T08:06:36.553Z,23.02
2023-06-11T08:08:38.900Z,23.14
2023-06-11T08:10:41.082Z,23.26
2023-06-11T08:12:42.739Z,23.40
2023-06-11T08:14:44.620Z,23.50
2023-06-11T08:16:47.085Z,23.57
2023-06-11T08:18:48.739Z,23.63
2023-06-11T08:20:50.560Z,23.72
2023-06-11T08:22:52.204Z,23.79
2023-06-11T08:24:54.092Z,23.86
2023-06-11T08:26:55.710Z,23.87
2023-06-11T08:28:57.534Z,23.95
2023-06-11T08:30:59.520Z,24.03
2023-06-11T08:33:01.465Z,24.10
2023-06-11T08:35:03.191Z,24.08
2023-06-11T08:37:05.310Z,24.07
2023-06-11T08:39:06.871Z,24.16
2023-06-11T08:41:08.857Z,24.25
2023-06-11T08:43:11.368Z,24.30
2023-06-11T08:45:13.105Z,24.37
2023-06-11T08:47:15.760Z,24.44
2023-06-11T08:49:22.780Z,24.47
2023-06-11T08:51:27.648Z,24.52
2023-06-11T08:53:29.471Z,24.59
2023-06-11T08:55:31.167Z,24.65
2023-06-11T08:57:32.732Z,24.71
2023-06-11T08:59:34.631Z,24.76
2023-06-11T09:01:36.598Z,24.83
2023-06-11T09:03:39.132Z,24.90
2023-06-11T09:05:41.195Z,24.88
2023-06-11T09:07:50.740Z,24.95
2023-06-11T09:10:10.145Z,25.01
2023-06-11T09:12:12.782Z,25.10
2023-06-11T09:14:14.931Z,25.17
2023-06-11T09:16:16.762Z,25.20
2023-06-11T09:18:28.794Z,25.16
2023-06-11T09:20:32.778Z,25.21
2023-06-11T09:22:37.730Z,25.30
2023-06-11T09:24:39.711Z,25.39
2023-06-11T09:26:50.194Z,25.46
2023-06-11T09:28:54.665Z,25.52
2023-06-11T09:30:57.951Z,25.57
2023-06-11T09:32:59.542Z,25.62
2023-06-11T09:35:01.756Z,25.67
2023-06-11T09:37:03.723Z,25.72
2023-06-11T09:39:05.292Z,25.83
2023-06-11T09:41:09.945Z,25.94
2023-06-11T09:43:11.581Z,26.07
2023-06-11T09:45:20.372Z,26.17
2023-06-11T09:47:22.188Z,26.26
2023-06-11T09:49:25.129Z,26.34
2023-06-11T09:51:27.233Z,26.40
2023-06-11T09:53:29.020Z,26.41
2023-06-11T09:55:36.347Z,26.49
2023-06-11T09:57:42.010Z,26.55
2023-06-11T09:59:44.057Z,26.56
2023-06-11T10:01:48.981Z,26.56
2023-06-11T10:03:50.813Z,26.65
2023-06-11T10:05:53.462Z,26.71
2023-06-11T10:08:17.235Z,26.85
2023-06-11T10:10:22.296Z,26.88
2023-06-11T10:12:23.962Z,26.96
2023-06-11T10:14:25.664Z,27.05
2023-06-11T10:16:28.806Z,27.11
2023-06-11T10:18:31.683Z,27.16
2023-06-11T10:20:36.440Z,27.14
2023-06-11T10:22:38.077Z,27.31
2023-06-11T10:24:39.984Z,27.53
2023-06-11T10:26:41.559Z,27.68
2023-06-11T10:28:45.857Z,27.87
2023-06-11T10:30:57.140Z,28.10
2023-06-11T10:32:59.571Z,28.34
2023-06-11T10:35:07.926Z,28.58
2023-06-11T10:37:10.639Z,28.82
2023-06-11T10:39:22.107Z,29.07
2023-06-11T10:41:31.013Z,29.37
2023-06-11T10:43:33.772Z,29.63
2023-06-11T10:45:37.453Z,29.89
2023-06-11T10:47:53.060Z,30.19
2023-06-11T10:50:08.786Z,30.51
2023-06-11T10:52:10.656Z,30.68
2023-06-11T10:54:12.131Z,30.75
2023-06-11T10:56:14.440Z,30.71
2023-06-11T10:58:22.882Z,30.54
2023-06-11T11:00:25.212Z,30.89
2023-06-11T11:02:27.944Z,31.35
2023-06-11T11:04:29.490Z,31.70
2023-06-11T11:06:31.335Z,32.06
2023-06-11T11:08:32.878Z,32.32
2023-06-11T11:10:34.364Z,32.62
2023-06-11T11:12:41.348Z,32.88
2023-06-11T11:14:42.980Z,33.16
2023-06-11T11:16:48.371Z,33.39
2023-06-11T11:18:50.843Z,33.64
2023-06-11T11:20:55.897Z,33.94
2023-06-11T11:22:58.068Z,34.08
2023-06-11T11:25:01.575Z,34.28
2023-06-11T11:27:03.116Z,34.12
2023-06-11T11:29:04.607Z,34.11
2023-06-11T11:31:06.451Z,34.20
2023-06-11T11:33:08.426Z,34.46
2023-06-11T11:35:12.767Z,34.38
2023-06-11T11:37:14.340Z,33.93
2023-06-11T11:39:15.976Z,33.90
2023-06-11T11:41:22.586Z,34.26
2023-06-11T11:43:24.520Z,34.75
2023-06-11T11:45:34.398Z,34.86
2023-06-11T11:47:36.631Z,34.94
2023-06-11T11:49:38.594Z,35.02
2023-06-11T11:51:46.813Z,35.23
2023-06-11T11:53:49.001Z,35.46
2023-06-11T11:56:04.490Z,35.76
2023-06-11T11:58:09.262Z,35.99
2023-06-11T12:00:11.426Z,36.03
2023-06-11T12:02:13.066Z,36.27
2023-06-11T12:04:14.565Z,36.30
2023-06-11T12:06:24.621Z,36.38
2023-06-11T12:08:28.133Z,36.54
2023-06-11T12:10:29.638Z,36.23
2023-06-11T12:12:31.098Z,36.16
2023-06-11T12:14:32.992Z,36.22
2023-06-11T12:16:35.292Z,36.34
2023-06-11T12:18:36.778Z,36.42
2023-06-11T12:20:38.296Z,36.02
2023-06-11T12:22:40.169Z,35.61
2023-06-11T12:24:41.776Z,35.44
2023-06-11T12:26:47.606Z,35.24
2023-06-11T12:28:50.893Z,35.14
2023-06-11T12:30:52.675Z,35.11
2023-06-11T12:32:54.190Z,35.03
2023-06-11T12:34:55.680Z,34.50
2023-06-11T12:36:57.215Z,34.14
2023-06-11T12:38:58.707Z,34.00
2023-06-11T12:41:00.552Z,33.44
2023-06-11T12:43:02.077Z,32.76
2023-06-11T12:45:04.647Z,32.74
2023-06-11T12:47:06.731Z,32.83
2023-06-11T12:49:08.195Z,32.72
2023-06-11T12:51:09.806Z,32.48
2023-06-11T12:53:11.374Z,32.38
2023-06-11T12:55:14.649Z,32.14
2023-06-11T12:57:16.442Z,31.87
2023-06-11T12:59:18.747Z,31.73
2023-06-11T13:01:20.636Z,31.81
2023-06-11T13:03:22.233Z,31.94
2023-06-11T13:05:23.758Z,31.93
2023-06-11T13:07:25.340Z,31.91
2023-06-11T13:09:26.825Z,31.58
2023-06-11T13:11:28.467Z,31.44
2023-06-11T13:13:30.568Z,31.43
2023-06-11T13:15:32.187Z,31.46
2023-06-11T13:17:33.721Z,31.46
2023-06-11T13:19:35.417Z,31.33
2023-06-11T13:21:37.255Z,31.22
2023-06-11T13:23:38.795Z,31.13
2023-06-11T13:25:40.275Z,31.10
2023-06-11T13:27:42.269Z,31.02
2023-06-11T13:29:43.860Z,30.87
2023-06-11T13:31:45.483Z,30.78
2023-06-11T13:33:47.033Z,30.47
2023-06-11T13:35:49.872Z,30.38
2023-06-11T13:37:51.399Z,30.46
2023-06-11T13:39:53.021Z,30.32
2023-06-11T13:41:54.556Z,30.25
2023-06-11T13:43:56.120Z,30.19
2023-06-11T13:45:59.555Z,30.24
2023-06-11T13:48:14.851Z,30.21
2023-06-11T13:50:16.486Z,30.25
2023-06-11T13:52:19.516Z,30.24
2023-06-11T13:54:21.020Z,30.14
2023-06-11T13:56:22.773Z,30.09
2023-06-11T13:58:26.024Z,30.12
2023-06-11T14:00:28.116Z,30.13
2023-06-11T14:02:29.723Z,30.11
2023-06-11T14:04:31.366Z,29.99
2023-06-11T14:06:33.548Z,29.78
2023-06-11T14:08:35.241Z,29.69
2023-06-11T14:10:36.753Z,29.51
2023-06-11T14:12:38.283Z,29.37
2023-06-11T14:14:39.801Z,29.46
2023-06-11T14:16:41.883Z,29.45
2023-06-11T14:18:43.449Z,29.55
2023-06-11T14:20:44.974Z,29.58
2023-06-11T14:22:46.956Z,29.61
2023-06-11T14:24:48.704Z,29.60
2023-06-11T14:26:52.262Z,29.62
2023-06-11T14:28:54.043Z,29.75
2023-06-11T14:30:55.644Z,29.78
2023-06-11T14:32:57.260Z,29.68
2023-06-11T14:34:59.367Z,29.62
2023-06-11T14:37:01.104Z,29.62
2023-06-11T14:39:02.631Z,29.69
2023-06-11T14:41:04.188Z,29.62
2023-06-11T14:43:05.729Z,29.43
2023-06-11T14:45:07.950Z,29.30
2023-06-11T14:47:09.561Z,29.26
2023-06-11T14:49:12.037Z,29.48
2023-06-11T14:51:13.612Z,29.58
2023-06-11T14:53:15.200Z,29.68
2023-06-11T14:55:16.967Z,29.66
2023-06-11T14:57:21.085Z,29.76
2023-06-11T14:59:23.983Z,29.85
2023-06-11T15:01:25.583Z,29.92
2023-06-11T15:03:27.214Z,29.97
2023-06-11T15:05:28.768Z,30.01
2023-06-11T15:07:35.351Z,29.97
2023-06-11T15:09:38.400Z,29.93
2023-06-11T15:11:39.895Z,29.86
2023-06-11T15:13:42.025Z,29.77
2023-06-11T15:15:43.532Z,29.69
2023-06-11T15:17:45.049Z,29.61
2023-06-11T15:19:46.647Z,29.59
2023-06-11T15:21:48.845Z,29.50
2023-06-11T15:23:50.458Z,29.43
2023-06-11T15:25:52.919Z,29.29
2023-06-11T15:27:54.663Z,29.22
2023-06-11T15:29:56.238Z,29.16
2023-06-11T15:31:59.508Z,29.14
2023-06-11T15:34:01.022Z,29.12
2023-06-11T15:36:02.662Z,29.11
2023-06-11T15:38:05.470Z,29.10
2023-06-11T15:40:07.652Z,29.05
2023-06-11T15:42:09.263Z,29.16
2023-06-11T15:44:10.799Z,29.16
2023-06-11T15:46:12.368Z,29.13
2023-06-11T15:48:13.939Z,29.06
2023-06-11T15:50:15.832Z,29.02
2023-06-11T15:52:17.592Z,29.13
2023-06-11T15:54:19.296Z,29.14
2023-06-11T15:56:20.866Z,29.13
2023-06-11T15:58:22.364Z,29.10
2023-06-11T16:00:25.083Z,29.00
2023-06-11T16:02:26.696Z,29.00
2023-06-11T16:04:28.345Z,29.01
2023-06-11T16:06:29.882Z,28.96
2023-06-11T16:08:31.470Z,28.98
2023-06-11T16:10:33.127Z,28.96
2023-06-11T16:12:34.719Z,28.94
2023-06-11T16:14:36.443Z,28.96
2023-06-11T16:16:38.660Z,28.89
2023-06-11T16:18:40.218Z,28.86
2023-06-11T16:20:41.845Z,28.86
2023-06-11T16:22:43.440Z,28.88
2023-06-11T16:24:44.959Z,28.85
2023-06-11T16:26:47.242Z,28.85
2023-06-11T16:28:50.619Z,28.80
2023-06-11T16:30:52.141Z,28.83
2023-06-11T16:32:53.751Z,28.81
2023-06-11T16:34:55.536Z,28.78
2023-06-11T16:36:57.134Z,28.74
2023-06-11T16:39:09.422Z,28.77
2023-06-11T16:41:18.577Z,28.74
2023-06-11T16:43:20.063Z,28.72
2023-06-11T16:45:21.647Z,28.66
2023-06-11T16:47:24.332Z,28.61
2023-06-11T16:49:26.331Z,28.59
2023-06-11T16:51:29.044Z,28.56
2023-06-11T16:53:30.543Z,28.56
2023-06-11T16:55:32.225Z,28.54
2023-06-11T16:57:33.955Z,28.53
2023-06-11T16:59:35.434Z,28.46
2023-06-11T17:01:36.973Z,28.46
2023-06-11T17:03:38.627Z,28.43
2023-06-11T17:05:40.482Z,28.44
2023-06-11T17:07:45.234Z,28.45
2023-06-11T17:09:46.829Z,28.42
2023-06-11T17:11:48.323Z,28.40
2023-06-11T17:13:50.426Z,28.40
2023-06-11T17:15:52.082Z,28.36
2023-06-11T17:17:54.506Z,28.36
2023-06-11T17:19:56.261Z,28.35
2023-06-11T17:21:57.781Z,28.36
2023-06-11T17:23:59.322Z,28.34
2023-06-11T17:26:00.996Z,28.32
2023-06-11T17:28:03.190Z,28.31
2023-06-11T17:30:06.256Z,28.29
2023-06-11T17:32:08.316Z,28.30
2023-06-11T17:34:09.901Z,28.29
2023-06-11T17:36:11.480Z,28.25
2023-06-11T17:38:13.006Z,28.24
2023-06-11T17:40:16.875Z,28.23
2023-06-11T17:42:19.263Z,28.23
2023-06-11T17:44:20.834Z,28.21
2023-06-11T17:46:22.445Z,28.23
2023-06-11T17:48:24.033Z,28.22
2023-06-11T17:50:25.907Z,28.20
2023-06-11T17:52:27.436Z,28.23
2023-06-11T17:54:28.944Z,28.20
2023-06-11T17:56:30.643Z,28.20
2023-06-11T17:58:32.210Z,28.17
2023-06-11T18:00:33.855Z,28.17
2023-06-11T18:02:36.452Z,28.15
2023-06-11T18:04:37.988Z,28.12
2023-06-11T18:06:39.562Z,28.13
2023-06-11T18:08:41.105Z,28.13
2023-06-11T18:10:42.634Z,28.15
2023-06-11T18:12:45.411Z,28.14
2023-06-11T18:14:47.372Z,28.08
2023-06-11T18:16:49.697Z,28.08
2023-06-11T18:18:51.576Z,28.03
2023-06-11T18:20:53.251Z,28.04
2023-06-11T18:22:55.085Z,28.03
2023-06-11T18:24:56.578Z,28.04
2023-06-11T18:26:58.079Z,28.03
2023-06-11T18:28:59.630Z,27.94
2023-06-11T18:31:01.447Z,27.90
2023-06-11T18:33:03.195Z,27.88
2023-06-11T18:35:05.398Z,27.89
2023-06-11T18:37:06.883Z,27.86
2023-06-11T18:39:08.398Z,27.83
2023-06-11T18:41:10.102Z,27.82
2023-06-11T18:43:11.783Z,27.78
2023-06-11T18:45:13.433Z,27.73
2023-06-11T18:47:15.257Z,27.71
2023-06-11T18:49:16.827Z,27.64
2023-06-11T18:51:18.565Z,27.53
2023-06-11T18:53:20.091Z,27.37
2023-06-11T18:55:22.804Z,27.30
2023-06-11T18:57:27.518Z,27.21
2023-06-11T18:59:29.712Z,27.11
2023-06-11T19:01:31.398Z,26.99
2023-06-11T19:03:35.317Z,26.94
2023-06-11T19:05:42.323Z,26.82
2023-06-11T19:07:44.017Z,26.74
2023-06-11T19:09:45.655Z,26.66
2023-06-11T19:11:48.947Z,26.58
2023-06-11T19:13:51.393Z,26.47
2023-06-11T19:15:54.939Z,26.40
2023-06-11T19:17:56.481Z,26.33
2023-06-11T19:19:58.115Z,26.29
2023-06-11T19:21:59.614Z,26.24
2023-06-11T19:24:01.240Z,26.14
2023-06-11T19:26:03.035Z,26.04
2023-06-11T19:28:04.713Z,25.98
2023-06-11T19:30:06.900Z,25.93
2023-06-11T19:32:08.770Z,25.83
2023-06-11T19:34:10.305Z,25.78
2023-06-11T19:36:12.114Z,25.70
2023-06-11T19:38:13.894Z,25.64
2023-06-11T19:40:16.083Z,25.57
2023-06-11T19:42:17.619Z,25.47
2023-06-11T19:44:19.222Z,25.39
2023-06-11T19:46:21.479Z,25.36
2023-06-11T19:48:24.259Z,25.28
2023-06-11T19:50:27.380Z,25.20
2023-06-11T19:52:28.989Z,25.11
2023-06-11T19:54:45.924Z,25.08
2023-06-11T19:56:51.816Z,24.98
2023-06-11T19:58:54.392Z,24.93
2023-06-11T20:00:56.295Z,24.88
2023-06-11T20:02:57.920Z,24.85
2023-06-11T20:04:59.530Z,24.78
2023-06-11T20:07:01.014Z,24.68
2023-06-11T20:09:04.473Z,24.65
2023-06-11T20:11:11.420Z,24.56
2023-06-11T20:13:13.162Z,24.51
2023-06-11T20:15:15.038Z,24.42
2023-06-11T20:17:16.586Z,24.39
2023-06-11T20:19:18.514Z,24.31
2023-06-11T20:21:20.044Z,24.24
2023-06-11T20:23:21.526Z,24.20
2023-06-11T20:25:23.083Z,24.14
2023-06-11T20:27:25.242Z,24.07
2023-06-11T20:29:26.817Z,23.99
2023-06-11T20:31:28.467Z,23.93
2023-06-11T20:33:35.620Z,23.85
2023-06-11T20:35:37.105Z,23.77
2023-06-11T20:37:38.663Z,23.69
2023-06-11T20:39:40.408Z,23.68
2023-06-11T20:41:41.908Z,23.64
2023-06-11T20:43:43.427Z,23.54
2023-06-11T20:45:54.569Z,23.48
2023-06-11T20:47:59.645Z,23.44
2023-06-11T20:50:01.388Z,23.37
2023-06-11T20:52:02.993Z,23.33
2023-06-11T20:54:04.704Z,23.25
2023-06-11T20:56:06.444Z,23.20
2023-06-11T20:58:07.964Z,23.10
2023-06-11T21:00:10.319Z,23.05
2023-06-11T21:02:12.138Z,22.98
2023-06-11T21:04:13.730Z,22.91
2023-06-11T21:06:15.483Z,22.85
2023-06-11T21:08:18.916Z,22.76
2023-06-11T21:10:20.612Z,22.77
2023-06-11T21:12:22.589Z,22.71
2023-06-11T21:14:24.309Z,22.65
2023-06-11T21:16:25.866Z,22.58
2023-06-11T21:18:27.374Z,22.50
2023-06-11T21:20:28.941Z,22.43
2023-06-11T21:22:30.433Z,22.38
2023-06-11T21:24:31.930Z,22.34
2023-06-11T21:26:33.885Z,22.27
2023-06-11T21:28:37.066Z,22.22
2023-06-11T21:30:38.713Z,22.19
2023-06-11T21:32:40.442Z,22.10
2023-06-11T21:34:42.005Z,22.04
2023-06-11T21:36:44.180Z,21.99
2023-06-11T21:38:45.808Z,21.93
2023-06-11T21:40:47.348Z,21.88
2023-06-11T21:42:48.874Z,21.82
2023-06-11T21:44:50.366Z,21.80
2023-06-11T21:46:51.954Z,21.77
2023-06-11T21:48:53.520Z,21.68
2023-06-11T21:50:54.997Z,21.59
2023-06-11T21:52:56.731Z,21.54
2023-06-11T21:54:58.367Z,21.47
2023-06-11T21:56:59.932Z,21.43
2023-06-11T21:59:01.419Z,21.37
2023-06-11T22:01:03.013Z,21.34
2023-06-11T22:03:05.050Z,21.30
2023-06-11T22:05:07.936Z,21.26
2023-06-11T22:07:09.471Z,21.17
2023-06-11T22:09:12.332Z,21.13
2023-06-11T22:11:13.865Z,21.09
2023-06-11T22:13:16.517Z,21.05
2023-06-11T22:15:18.133Z,21.02
2023-06-11T22:17:22.757Z,20.99
2023-06-11T22:19:25.257Z,20.95
2023-06-11T22:21:26.879Z,20.91
2023-06-11T22:23:45.164Z,20.86
2023-06-11T22:25:51.032Z,20.80
2023-06-11T22:27:52.941Z,20.78
2023-06-11T22:29:54.437Z,20.70
2023-06-11T22:31:56.005Z,20.67
2023-06-11T22:33:57.933Z,20.63
2023-06-11T22:35:59.436Z,20.58
2023-06-11T22:38:00.906Z,20.55
2023-06-11T22:40:03.843Z,20.49
2023-06-11T22:42:05.808Z,20.44
2023-06-11T22:44:07.414Z,20.37
2023-06-11T22:46:08.992Z,20.35
2023-06-11T22:48:11.282Z,20.29
2023-06-11T22:50:13.196Z,20.23
2023-06-11T22:52:17.558Z,20.16
2023-06-11T22:54:19.103Z,20.12
2023-06-11T22:56:21.487Z,20.11
2023-06-11T22:58:23.329Z,20.04
2023-06-11T23:00:24.862Z,20.00
2023-06-11T23:02:26.543Z,19.95
2023-06-11T23:04:28.160Z,19.89
2023-06-11T23:06:30.353Z,19.85
2023-06-11T23:08:31.860Z,19.84
2023-06-11T23:10:33.355Z,19.81
2023-06-11T23:12:34.855Z,19.74
2023-06-11T23:14:36.316Z,19.74
2023-06-11T23:16:38.522Z,19.71
2023-06-11T23:18:41.239Z,19.66
2023-06-11T23:20:43.785Z,19.63
2023-06-11T23:22:48.006Z,19.59
2023-06-11T23:24:50.756Z,19.54
2023-06-11T23:26:53.566Z,19.53
2023-06-11T23:28:57.111Z,19.50
2023-06-11T23:30:58.661Z,19.46
2023-06-11T23:33:01.217Z,19.41
2023-06-11T23:35:03.932Z,19.38
2023-06-11T23:37:07.436Z,19.33
2023-06-11T23:39:10.614Z,19.28
2023-06-11T23:41:12.632Z,19.24
2023-06-11T23:43:14.134Z,19.22
2023-06-11T23:45:15.777Z,19.19
2023-06-11T23:47:17.338Z,19.16
2023-06-11T23:49:18.859Z,19.12
2023-06-11T23:51:21.170Z,19.06
2023-06-11T23:53:23.188Z,19.02
2023-06-11T23:55:25.025Z,18.97
2023-06-11T23:57:27.064Z,18.92
2023-06-11T23:59:28.526Z,18.87
